sensor_id;sensor_type;location;lat;lon;timestamp;pressure;altitude;pressure_sealevel;temperature;humidity
30554;BME280;17335;50.720;7.452;2022-12-20T00:02:24;99470.81;;;7.09;100.00
30554;BME280;17335;50.720;7.452;2022-12-20T00:04:51;99479.78;;;7.08;100.00
30554;BME280;17335;50.720;7.452;2022-12-20T00:07:17;99470.41;;;7.03;100.00
30554;BME280;17335;50.720;7.452;2022-12-20T00:09:44;99468.84;;;7.00;100.00
30554;BME280;17335;50.720;7.452;2022-12-20T00:12:10;99461.06;;;6.97;100.00
30554;BME280;17335;50.720;7.452;2022-12-20T00:14:37;99452.59;;;6.92;100.00
30554;BME280;17335;50.720;7.452;2022-12-20T00:17:03;99454.03;;;6.85;100.00
30554;BME280;17335;50.720;7.452;2022-12-20T00:19:29;99459.81;;;6.79;100.00
30554;BME280;17335;50.720;7.452;2022-12-20T00:21:56;99458.88;;;6.80;100.00
30554;BME280;17335;50.720;7.452;2022-12-20T00:24:22;99460.19;;;6.74;100.00
30554;BME280;17335;50.720;7.452;2022-12-20T00:26:51;99462.09;;;6.72;100.00
30554;BME280;17335;50.720;7.452;2022-12-20T00:29:18;99463.94;;;6.71;100.00
30554;BME280;17335;50.720;7.452;2022-12-20T00:31:44;99456.66;;;6.62;100.00
30554;BME280;17335;50.720;7.452;2022-12-20T00:34:11;99465.09;;;6.56;100.00
30554;BME280;17335;50.720;7.452;2022-12-20T00:36:38;99446.91;;;6.50;100.00
30554;BME280;17335;50.720;7.452;2022-12-20T00:39:05;99438.78;;;6.51;100.00
30554;BME280;17335;50.720;7.452;2022-12-20T00:41:33;99436.88;;;6.53;100.00
30554;BME280;17335;50.720;7.452;2022-12-20T00:44:00;99446.16;;;6.48;100.00
30554;BME280;17335;50.720;7.452;2022-12-20T00:46:27;99448.38;;;6.54;100.00
30554;BME280;17335;50.720;7.452;2022-12-20T00:48:54;99445.22;;;6.60;100.00
30554;BME280;17335;50.720;7.452;2022-12-20T00:51:25;99449.81;;;6.58;100.00
30554;BME280;17335;50.720;7.452;2022-12-20T00:53:52;99446.31;;;6.57;100.00
30554;BME280;17335;50.720;7.452;2022-12-20T00:56:20;99444.03;;;6.64;100.00
30554;BME280;17335;50.720;7.452;2022-12-20T00:58:47;99437.72;;;6.65;100.00
30554;BME280;17335;50.720;7.452;2022-12-20T01:01:28;99430.81;;;6.63;100.00
30554;BME280;17335;50.720;7.452;2022-12-20T01:03:55;99432.38;;;6.54;100.00
30554;BME280;17335;50.720;7.452;2022-12-20T01:06:23;99439.13;;;6.47;100.00
30554;BME280;17335;50.720;7.452;2022-12-20T01:08:51;99430.63;;;6.42;100.00
30554;BME280;17335;50.720;7.452;2022-12-20T01:11:22;99424.56;;;6.40;100.00
30554;BME280;17335;50.720;7.452;2022-12-20T01:13:53;99416.72;;;6.49;100.00
30554;BME280;17335;50.720;7.452;2022-12-20T01:16:36;99410.66;;;6.47;100.00
30554;BME280;17335;50.720;7.452;2022-12-20T01:19:04;99422.16;;;6.48;100.00
30554;BME280;17335;50.720;7.452;2022-12-20T01:21:30;99429.44;;;6.46;100.00
30554;BME280;17335;50.720;7.452;2022-12-20T01:23:57;99425.19;;;6.43;100.00
30554;BME280;17335;50.720;7.452;2022-12-20T01:26:26;99435.75;;;6.45;100.00
30554;BME280;17335;50.720;7.452;2022-12-20T01:28:58;99427.38;;;6.49;100.00
30554;BME280;17335;50.720;7.452;2022-12-20T01:31:26;99429.69;;;6.54;100.00
30554;BME280;17335;50.720;7.452;2022-12-20T01:33:53;99423.63;;;6.52;100.00
30554;BME280;17335;50.720;7.452;2022-12-20T01:36:25;99434.91;;;6.55;100.00
30554;BME280;17335;50.720;7.452;2022-12-20T01:39:04;99438.66;;;6.53;100.00
30554;BME280;17335;50.720;7.452;2022-12-20T01:41:32;99426.09;;;6.66;100.00
30554;BME280;17335;50.720;7.452;2022-12-20T01:44:01;99428.25;;;6.61;100.00
30554;BME280;17335;50.720;7.452;2022-12-20T01:46:29;99425.63;;;6.72;100.00
30554;BME280;17335;50.720;7.452;2022-12-20T01:49:07;99430.22;;;6.70;100.00
30554;BME280;17335;50.720;7.452;2022-12-20T01:51:42;99427.69;;;6.69;100.00
30554;BME280;17335;50.720;7.452;2022-12-20T01:54:22;99432.63;;;6.62;100.00
30554;BME280;17335;50.720;7.452;2022-12-20T01:56:55;99435.75;;;6.56;100.00
30554;BME280;17335;50.720;7.452;2022-12-20T01:59:24;99428.47;;;6.58;100.00
30554;BME280;17335;50.720;7.452;2022-12-20T02:01:51;99426.81;;;6.57;100.00
30554;BME280;17335;50.720;7.452;2022-12-20T02:04:18;99418.66;;;6.47;100.00
30554;BME280;17335;50.720;7.452;2022-12-20T02:06:44;99401.53;;;6.38;100.00
30554;BME280;17335;50.720;7.452;2022-12-20T02:09:11;99400.41;;;6.30;100.00
30554;BME280;17335;50.720;7.452;2022-12-20T02:31:12;99414.72;;;6.05;100.00
30554;BME280;17335;50.720;7.452;2022-12-20T02:33:46;99411.34;;;6.03;100.00
30554;BME280;17335;50.720;7.452;2022-12-20T02:36:17;99420.28;;;6.01;100.00
30554;BME280;17335;50.720;7.452;2022-12-20T02:38:44;99405.28;;;6.00;100.00
30554;BME280;17335;50.720;7.452;2022-12-20T02:41:24;99402.41;;;6.15;100.00
30554;BME280;17335;50.720;7.452;2022-12-20T02:43:56;99385.75;;;6.24;100.00
30554;BME280;17335;50.720;7.452;2022-12-20T02:46:44;99394.97;;;6.31;100.00
30554;BME280;17335;50.720;7.452;2022-12-20T02:49:14;99386.75;;;6.34;100.00
30554;BME280;17335;50.720;7.452;2022-12-20T02:51:43;99396.69;;;6.44;100.00
30554;BME280;17335;50.720;7.452;2022-12-20T02:54:11;99392.09;;;6.46;100.00
30554;BME280;17335;50.720;7.452;2022-12-20T02:56:44;99414.25;;;6.46;100.00
30554;BME280;17335;50.720;7.452;2022-12-20T02:59:13;99417.69;;;6.48;100.00
30554;BME280;17335;50.720;7.452;2022-12-20T03:02:00;99418.31;;;6.52;100.00
30554;BME280;17335;50.720;7.452;2022-12-20T03:04:30;99418.75;;;6.46;100.00
30554;BME280;17335;50.720;7.452;2022-12-20T03:07:10;99416.81;;;6.48;100.00
30554;BME280;17335;50.720;7.452;2022-12-20T03:09:40;99418.31;;;6.52;100.00
30554;BME280;17335;50.720;7.452;2022-12-20T03:12:08;99417.44;;;6.51;100.00
30554;BME280;17335;50.720;7.452;2022-12-20T03:14:37;99410.91;;;6.55;100.00
30554;BME280;17335;50.720;7.452;2022-12-20T03:17:05;99405.97;;;6.62;100.00
30554;BME280;17335;50.720;7.452;2022-12-20T03:19:32;99404.13;;;6.63;100.00
30554;BME280;17335;50.720;7.452;2022-12-20T03:21:58;99408.38;;;6.65;100.00
30554;BME280;17335;50.720;7.452;2022-12-20T03:24:25;99409.50;;;6.74;100.00
30554;BME280;17335;50.720;7.452;2022-12-20T03:26:52;99406.19;;;6.70;100.00
30554;BME280;17335;50.720;7.452;2022-12-20T03:29:18;99392.84;;;6.70;100.00
30554;BME280;17335;50.720;7.452;2022-12-20T03:31:45;99389.97;;;6.73;100.00
30554;BME280;17335;50.720;7.452;2022-12-20T03:34:11;99385.50;;;6.74;100.00
30554;BME280;17335;50.720;7.452;2022-12-20T03:36:38;99389.34;;;6.70;100.00
30554;BME280;17335;50.720;7.452;2022-12-20T03:39:04;99369.84;;;6.81;100.00
30554;BME280;17335;50.720;7.452;2022-12-20T03:41:31;99381.13;;;6.73;100.00
30554;BME280;17335;50.720;7.452;2022-12-20T03:43:57;99391.78;;;6.73;100.00
30554;BME280;17335;50.720;7.452;2022-12-20T03:46:24;99380.16;;;6.74;100.00
30554;BME280;17335;50.720;7.452;2022-12-20T03:48:51;99383.31;;;6.79;100.00
30554;BME280;17335;50.720;7.452;2022-12-20T03:51:17;99376.75;;;6.72;100.00
30554;BME280;17335;50.720;7.452;2022-12-20T03:53:43;99362.22;;;6.76;100.00
30554;BME280;17335;50.720;7.452;2022-12-20T03:56:10;99364.38;;;6.71;100.00
30554;BME280;17335;50.720;7.452;2022-12-20T03:58:36;99365.84;;;6.75;100.00
30554;BME280;17335;50.720;7.452;2022-12-20T04:03:44;99390.44;;;6.67;100.00
30554;BME280;17335;50.720;7.452;2022-12-20T04:06:11;99391.75;;;6.62;100.00
30554;BME280;17335;50.720;7.452;2022-12-20T04:08:37;99384.34;;;6.65;100.00
30554;BME280;17335;50.720;7.452;2022-12-20T04:11:03;99377.09;;;6.56;100.00
30554;BME280;17335;50.720;7.452;2022-12-20T04:16:10;99352.34;;;6.54;100.00
30554;BME280;17335;50.720;7.452;2022-12-20T04:18:37;99353.44;;;6.51;100.00
30554;BME280;17335;50.720;7.452;2022-12-20T04:21:04;99360.69;;;6.49;100.00
30554;BME280;17335;50.720;7.452;2022-12-20T04:23:33;99353.44;;;6.51;100.00
30554;BME280;17335;50.720;7.452;2022-12-20T04:26:01;99356.34;;;6.60;100.00
30554;BME280;17335;50.720;7.452;2022-12-20T04:28:28;99361.22;;;6.66;100.00
30554;BME280;17335;50.720;7.452;2022-12-20T04:30:55;99357.94;;;6.62;100.00
30554;BME280;17335;50.720;7.452;2022-12-20T04:33:22;99368.72;;;6.61;100.00
30554;BME280;17335;50.720;7.452;2022-12-20T04:35:48;99368.00;;;6.70;100.00
30554;BME280;17335;50.720;7.452;2022-12-20T04:38:15;99354.56;;;6.71;100.00
30554;BME280;17335;50.720;7.452;2022-12-20T04:40:42;99356.97;;;6.63;100.00
30554;BME280;17335;50.720;7.452;2022-12-20T04:43:08;99357.56;;;6.67;100.00
30554;BME280;17335;50.720;7.452;2022-12-20T04:45:35;99347.16;;;6.64;100.00
30554;BME280;17335;50.720;7.452;2022-12-20T04:48:01;99343.75;;;6.62;100.00
30554;BME280;17335;50.720;7.452;2022-12-20T04:50:48;99345.94;;;6.68;100.00
30554;BME280;17335;50.720;7.452;2022-12-20T04:53:15;99346.28;;;6.63;100.00
30554;BME280;17335;50.720;7.452;2022-12-20T04:56:00;99332.00;;;6.64;100.00
30554;BME280;17335;50.720;7.452;2022-12-20T04:58:28;99329.44;;;6.63;100.00
30554;BME280;17335;50.720;7.452;2022-12-20T05:00:54;99325.19;;;6.60;100.00
30554;BME280;17335;50.720;7.452;2022-12-20T05:03:22;99316.22;;;6.61;100.00
30554;BME280;17335;50.720;7.452;2022-12-20T05:05:49;99306.41;;;6.50;100.00
30554;BME280;17335;50.720;7.452;2022-12-20T05:08:15;99325.19;;;6.49;100.00
30554;BME280;17335;50.720;7.452;2022-12-20T05:10:41;99317.66;;;6.43;100.00
30554;BME280;17335;50.720;7.452;2022-12-20T05:13:08;99310.16;;;6.48;100.00
30554;BME280;17335;50.720;7.452;2022-12-20T05:15:35;99319.25;;;6.45;100.00
30554;BME280;17335;50.720;7.452;2022-12-20T05:18:03;99319.13;;;6.47;100.00
30554;BME280;17335;50.720;7.452;2022-12-20T05:20:29;99318.91;;;6.50;100.00
30554;BME280;17335;50.720;7.452;2022-12-20T05:22:56;99314.66;;;6.47;100.00
30554;BME280;17335;50.720;7.452;2022-12-20T05:25:46;99314.16;;;6.42;100.00
30554;BME280;17335;50.720;7.452;2022-12-20T05:28:32;99310.03;;;6.38;100.00
30554;BME280;17335;50.720;7.452;2022-12-20T05:30:58;99315.47;;;6.36;100.00
30554;BME280;17335;50.720;7.452;2022-12-20T05:33:25;99324.25;;;6.50;100.00
30554;BME280;17335;50.720;7.452;2022-12-20T05:35:59;99323.59;;;6.46;100.00
30554;BME280;17335;50.720;7.452;2022-12-20T05:38:25;99312.81;;;6.48;100.00
30554;BME280;17335;50.720;7.452;2022-12-20T05:40:52;99315.00;;;6.43;100.00
30554;BME280;17335;50.720;7.452;2022-12-20T05:43:19;99300.22;;;6.50;100.00
30554;BME280;17335;50.720;7.452;2022-12-20T05:45:50;99301.34;;;6.59;100.00
30554;BME280;17335;50.720;7.452;2022-12-20T05:48:18;99300.84;;;6.65;100.00
30554;BME280;17335;50.720;7.452;2022-12-20T05:50:46;99296.97;;;6.69;100.00
30554;BME280;17335;50.720;7.452;2022-12-20T05:53:13;99299.25;;;6.73;100.00
30554;BME280;17335;50.720;7.452;2022-12-20T05:55:50;99289.78;;;6.81;100.00
30554;BME280;17335;50.720;7.452;2022-12-20T05:58:16;99301.31;;;6.81;100.00
30554;BME280;17335;50.720;7.452;2022-12-20T06:00:43;99289.53;;;6.84;100.00
30554;BME280;17335;50.720;7.452;2022-12-20T06:03:10;99291.72;;;6.79;100.00
30554;BME280;17335;50.720;7.452;2022-12-20T06:05:38;99287.59;;;6.86;100.00
30554;BME280;17335;50.720;7.452;2022-12-20T06:08:05;99301.44;;;6.80;100.00
30554;BME280;17335;50.720;7.452;2022-12-20T06:10:33;99305.47;;;6.74;100.00
30554;BME280;17335;50.720;7.452;2022-12-20T06:13:00;99309.66;;;6.65;100.00
30554;BME280;17335;50.720;7.452;2022-12-20T06:15:27;99315.66;;;6.69;100.00
30554;BME280;17335;50.720;7.452;2022-12-20T06:17:54;99311.50;;;6.65;100.00
30554;BME280;17335;50.720;7.452;2022-12-20T06:20:21;99302.16;;;6.70;100.00
30554;BME280;17335;50.720;7.452;2022-12-20T06:22:47;99295.63;;;6.63;100.00
30554;BME280;17335;50.720;7.452;2022-12-20T06:25:14;99288.59;;;6.62;100.00
30554;BME280;17335;50.720;7.452;2022-12-20T06:27:41;99279.84;;;6.60;100.00
30554;BME280;17335;50.720;7.452;2022-12-20T06:30:09;99270.78;;;6.63;100.00
30554;BME280;17335;50.720;7.452;2022-12-20T06:32:35;99261.94;;;6.62;100.00
30554;BME280;17335;50.720;7.452;2022-12-20T06:35:02;99266.50;;;6.60;100.00
30554;BME280;17335;50.720;7.452;2022-12-20T06:37:28;99267.47;;;6.70;100.00
30554;BME280;17335;50.720;7.452;2022-12-20T06:39:55;99267.75;;;6.67;100.00
30554;BME280;17335;50.720;7.452;2022-12-20T06:42:21;99259.50;;;6.59;100.00
30554;BME280;17335;50.720;7.452;2022-12-20T06:44:48;99259.97;;;6.53;100.00
30554;BME280;17335;50.720;7.452;2022-12-20T06:47:14;99263.97;;;6.47;100.00
30554;BME280;17335;50.720;7.452;2022-12-20T06:49:41;99259.88;;;6.43;100.00
30554;BME280;17335;50.720;7.452;2022-12-20T06:52:07;99261.94;;;6.40;100.00
30554;BME280;17335;50.720;7.452;2022-12-20T06:54:33;99264.31;;;6.43;100.00
30554;BME280;17335;50.720;7.452;2022-12-20T06:57:00;99266.06;;;6.55;100.00
30554;BME280;17335;50.720;7.452;2022-12-20T06:59:26;99265.91;;;6.45;100.00
30554;BME280;17335;50.720;7.452;2022-12-20T07:01:53;99265.81;;;6.47;100.00
30554;BME280;17335;50.720;7.452;2022-12-20T07:04:19;99255.84;;;6.49;100.00
30554;BME280;17335;50.720;7.452;2022-12-20T07:06:46;99250.75;;;6.46;100.00
30554;BME280;17335;50.720;7.452;2022-12-20T07:09:13;99246.41;;;6.45;100.00
30554;BME280;17335;50.720;7.452;2022-12-20T07:11:39;99246.41;;;6.45;100.00
30554;BME280;17335;50.720;7.452;2022-12-20T07:14:05;99243.88;;;6.43;100.00
30554;BME280;17335;50.720;7.452;2022-12-20T07:16:32;99237.78;;;6.52;100.00
30554;BME280;17335;50.720;7.452;2022-12-20T07:18:58;99229.44;;;6.46;100.00
30554;BME280;17335;50.720;7.452;2022-12-20T07:21:25;99228.22;;;6.50;100.00
30554;BME280;17335;50.720;7.452;2022-12-20T07:23:51;99241.41;;;6.51;100.00
30554;BME280;17335;50.720;7.452;2022-12-20T07:26:18;99248.09;;;6.57;100.00
30554;BME280;17335;50.720;7.452;2022-12-20T07:28:45;99239.13;;;6.58;100.00
30554;BME280;17335;50.720;7.452;2022-12-20T07:31:11;99237.91;;;6.51;100.00
30554;BME280;17335;50.720;7.452;2022-12-20T07:33:38;99241.19;;;6.54;100.00
30554;BME280;17335;50.720;7.452;2022-12-20T07:36:07;99234.38;;;6.62;100.00
30554;BME280;17335;50.720;7.452;2022-12-20T07:38:35;99223.34;;;6.66;100.00
30554;BME280;17335;50.720;7.452;2022-12-20T07:43:35;99230.97;;;6.82;100.00
30554;BME280;17335;50.720;7.452;2022-12-20T07:46:03;99231.19;;;6.90;100.00
30554;BME280;17335;50.720;7.452;2022-12-20T07:48:30;99216.31;;;6.88;100.00
30554;BME280;17335;50.720;7.452;2022-12-20T07:51:01;99208.31;;;6.88;100.00
30554;BME280;17335;50.720;7.452;2022-12-20T07:53:30;99204.53;;;6.90;100.00
30554;BME280;17335;50.720;7.452;2022-12-20T07:55:58;99207.06;;;6.92;100.00
30554;BME280;17335;50.720;7.452;2022-12-20T07:58:26;99209.25;;;6.87;100.00
30554;BME280;17335;50.720;7.452;2022-12-20T08:00:55;99208.19;;;6.89;100.00
30554;BME280;17335;50.720;7.452;2022-12-20T08:03:32;99209.25;;;6.87;100.00
30554;BME280;17335;50.720;7.452;2022-12-20T08:06:04;99209.00;;;6.90;100.00
30554;BME280;17335;50.720;7.452;2022-12-20T08:08:34;99212.53;;;6.90;100.00
30554;BME280;17335;50.720;7.452;2022-12-20T08:11:02;99227.56;;;6.91;100.00
30554;BME280;17335;50.720;7.452;2022-12-20T08:13:30;99223.31;;;6.89;100.00
30554;BME280;17335;50.720;7.452;2022-12-20T08:15:57;99226.63;;;6.70;100.00
30554;BME280;17335;50.720;7.452;2022-12-20T08:18:24;99222.59;;;6.75;100.00
30554;BME280;17335;50.720;7.452;2022-12-20T08:20:50;99228.22;;;6.72;100.00
30554;BME280;17335;50.720;7.452;2022-12-20T08:23:17;99236.69;;;6.66;100.00
30554;BME280;17335;50.720;7.452;2022-12-20T08:25:44;99227.63;;;6.69;100.00
30554;BME280;17335;50.720;7.452;2022-12-20T08:28:11;99233.44;;;6.63;100.00
30554;BME280;17335;50.720;7.452;2022-12-20T08:30:37;99232.06;;;6.68;100.00
30554;BME280;17335;50.720;7.452;2022-12-20T08:33:03;99218.97;;;6.65;100.00
30554;BME280;17335;50.720;7.452;2022-12-20T08:35:30;99209.53;;;6.61;100.00
30554;BME280;17335;50.720;7.452;2022-12-20T08:37:57;99208.53;;;6.73;100.00
30554;BME280;17335;50.720;7.452;2022-12-20T08:40:23;99204.22;;;6.61;100.00
30554;BME280;17335;50.720;7.452;2022-12-20T08:42:50;99216.78;;;6.70;100.00
30554;BME280;17335;50.720;7.452;2022-12-20T08:45:16;99225.03;;;6.79;100.00
30554;BME280;17335;50.720;7.452;2022-12-20T08:47:44;99211.34;;;6.83;100.00
30554;BME280;17335;50.720;7.452;2022-12-20T08:50:11;99216.53;;;6.85;100.00
30554;BME280;17335;50.720;7.452;2022-12-20T08:52:38;99213.38;;;6.91;100.00
30554;BME280;17335;50.720;7.452;2022-12-20T08:55:05;99210.69;;;6.91;100.00
30554;BME280;17335;50.720;7.452;2022-12-20T08:57:32;99213.75;;;6.86;100.00
30554;BME280;17335;50.720;7.452;2022-12-20T08:59:58;99198.81;;;6.84;100.00
30554;BME280;17335;50.720;7.452;2022-12-20T09:02:25;99209.00;;;6.90;100.00
30554;BME280;17335;50.720;7.452;2022-12-20T09:04:51;99218.94;;;6.99;100.00
30554;BME280;17335;50.720;7.452;2022-12-20T09:07:18;99208.34;;;7.09;100.00
30554;BME280;17335;50.720;7.452;2022-12-20T09:09:45;99203.63;;;7.12;100.00
30554;BME280;17335;50.720;7.452;2022-12-20T09:12:12;99192.16;;;7.22;100.00
30554;BME280;17335;50.720;7.452;2022-12-20T09:14:39;99183.41;;;7.31;100.00
30554;BME280;17335;50.720;7.452;2022-12-20T09:17:05;99193.63;;;7.26;100.00
30554;BME280;17335;50.720;7.452;2022-12-20T09:19:31;99183.28;;;7.32;100.00
30554;BME280;17335;50.720;7.452;2022-12-20T09:21:58;99180.22;;;7.37;100.00
30554;BME280;17335;50.720;7.452;2022-12-20T09:24:24;99191.88;;;7.36;100.00
30554;BME280;17335;50.720;7.452;2022-12-20T09:26:51;99191.75;;;7.38;100.00
30554;BME280;17335;50.720;7.452;2022-12-20T09:29:19;99184.25;;;7.31;100.00
30554;BME280;17335;50.720;7.452;2022-12-20T09:31:52;99198.97;;;7.26;100.00
30554;BME280;17335;50.720;7.452;2022-12-20T09:34:18;99197.13;;;7.26;100.00
30554;BME280;17335;50.720;7.452;2022-12-20T09:36:45;99193.28;;;7.19;100.00
30554;BME280;17335;50.720;7.452;2022-12-20T09:39:11;99194.72;;;7.23;100.00
30554;BME280;17335;50.720;7.452;2022-12-20T09:41:43;99205.16;;;7.15;100.00
30554;BME280;17335;50.720;7.452;2022-12-20T09:44:30;99202.19;;;7.08;100.00
30554;BME280;17335;50.720;7.452;2022-12-20T09:47:28;99205.59;;;6.99;100.00
30554;BME280;17335;50.720;7.452;2022-12-20T09:49:56;99204.03;;;6.97;100.00
30554;BME280;17335;50.720;7.452;2022-12-20T09:58:26;99208.41;;;6.86;100.00
30554;BME280;17335;50.720;7.452;2022-12-20T10:00:56;99208.53;;;6.85;100.00
30554;BME280;17335;50.720;7.452;2022-12-20T10:03:28;99207.56;;;6.86;100.00
30554;BME280;17335;50.720;7.452;2022-12-20T10:05:59;99207.06;;;6.92;100.00
30554;BME280;17335;50.720;7.452;2022-12-20T10:11:21;99204.41;;;6.81;100.00
30554;BME280;17335;50.720;7.452;2022-12-20T10:14:13;99212.41;;;6.81;100.00
30554;BME280;17335;50.720;7.452;2022-12-20T10:16:51;99207.81;;;6.83;100.00
30554;BME280;17335;50.720;7.452;2022-12-20T10:22:15;99203.81;;;6.88;100.00
30554;BME280;17335;50.720;7.452;2022-12-20T10:24:52;99194.09;;;6.87;100.00
30554;BME280;17335;50.720;7.452;2022-12-20T10:27:21;99180.97;;;6.95;100.00
30554;BME280;17335;50.720;7.452;2022-12-20T10:29:49;99190.44;;;7.00;100.00
30554;BME280;17335;50.720;7.452;2022-12-20T10:32:21;99193.13;;;7.00;100.00
30554;BME280;17335;50.720;7.452;2022-12-20T10:34:56;99188.97;;;7.07;100.00
30554;BME280;17335;50.720;7.452;2022-12-20T10:37:25;99190.97;;;7.14;100.00
30554;BME280;17335;50.720;7.452;2022-12-20T10:39:51;99178.31;;;7.28;100.00
30554;BME280;17335;50.720;7.452;2022-12-20T10:42:29;99166.41;;;7.32;100.00
30554;BME280;17335;50.720;7.452;2022-12-20T10:44:59;99164.53;;;7.44;100.00
30554;BME280;17335;50.720;7.452;2022-12-20T10:47:40;99167.59;;;7.39;100.00
30554;BME280;17335;50.720;7.452;2022-12-20T10:50:16;99165.63;;;7.41;100.00
30554;BME280;17335;50.720;7.452;2022-12-20T10:53:16;99170.56;;;7.46;100.00
30554;BME280;17335;50.720;7.452;2022-12-20T10:55:44;99158.13;;;7.56;100.00
30554;BME280;17335;50.720;7.452;2022-12-20T10:58:29;99151.13;;;7.55;100.00
30554;BME280;17335;50.720;7.452;2022-12-20T11:04:06;99157.16;;;7.57;100.00
30554;BME280;17335;50.720;7.452;2022-12-20T11:06:44;99148.81;;;7.50;100.00
30554;BME280;17335;50.720;7.452;2022-12-20T11:09:33;99131.72;;;7.53;100.00
30554;BME280;17335;50.720;7.452;2022-12-20T11:12:14;99126.38;;;7.53;100.00
30554;BME280;17335;50.720;7.452;2022-12-20T11:14:43;99131.03;;;7.61;100.00
30554;BME280;17335;50.720;7.452;2022-12-20T11:34:50;99087.22;;;8.04;100.00
30554;BME280;17335;50.720;7.452;2022-12-20T11:37:52;99078.09;;;8.06;100.00
30554;BME280;17335;50.720;7.452;2022-12-20T11:40:32;99084.03;;;8.10;100.00
30554;BME280;17335;50.720;7.452;2022-12-20T11:46:26;99079.88;;;8.37;100.00
30554;BME280;17335;50.720;7.452;2022-12-20T11:49:15;99084.72;;;8.43;100.00
30554;BME280;17335;50.720;7.452;2022-12-20T11:51:47;99072.03;;;8.45;100.00
30554;BME280;17335;50.720;7.452;2022-12-20T11:54:25;99068.81;;;8.51;100.00
30554;BME280;17335;50.720;7.452;2022-12-20T11:57:00;99072.34;;;8.61;100.00
30554;BME280;17335;50.720;7.452;2022-12-20T11:59:37;99057.56;;;8.57;100.00
30554;BME280;17335;50.720;7.452;2022-12-20T12:02:40;99066.28;;;8.69;100.00
30554;BME280;17335;50.720;7.452;2022-12-20T12:05:34;99051.66;;;8.73;100.00
30554;BME280;17335;50.720;7.452;2022-12-20T12:08:10;99049.13;;;8.81;100.00
30554;BME280;17335;50.720;7.452;2022-12-20T12:10:53;99055.03;;;8.85;100.00
30554;BME280;17335;50.720;7.452;2022-12-20T12:13:26;99052.22;;;8.77;100.00
30554;BME280;17335;50.720;7.452;2022-12-20T12:16:25;99044.75;;;8.80;100.00
30554;BME280;17335;50.720;7.452;2022-12-20T12:18:53;99043.34;;;8.86;100.00
30554;BME280;17335;50.720;7.452;2022-12-20T12:26:52;99046.44;;;9.01;100.00
30554;BME280;17335;50.720;7.452;2022-12-20T12:29:20;99032.78;;;8.94;100.00
30554;BME280;17335;50.720;7.452;2022-12-20T12:34:45;99025.44;;;9.06;100.00
30554;BME280;17335;50.720;7.452;2022-12-20T12:45:33;99013.41;;;9.30;100.00
30554;BME280;17335;50.720;7.452;2022-12-20T12:48:22;99012.44;;;9.31;100.00
30554;BME280;17335;50.720;7.452;2022-12-20T12:50:52;98999.59;;;9.25;100.00
30554;BME280;17335;50.720;7.452;2022-12-20T12:59:21;98998.22;;;9.20;100.00
30554;BME280;17335;50.720;7.452;2022-12-20T13:17:54;99012.84;;;9.26;100.00
30554;BME280;17335;50.720;7.452;2022-12-20T13:20:30;99005.06;;;9.33;100.00
30554;BME280;17335;50.720;7.452;2022-12-20T13:25:42;99020.19;;;9.34;100.00
30554;BME280;17335;50.720;7.452;2022-12-20T13:30:46;99019.16;;;9.35;100.00
30554;BME280;17335;50.720;7.452;2022-12-20T13:33:37;99014.13;;;9.22;100.00
30554;BME280;17335;50.720;7.452;2022-12-20T13:38:52;99011.59;;;9.11;100.00
30554;BME280;17335;50.720;7.452;2022-12-20T13:41:43;99014.00;;;9.14;100.00
30554;BME280;17335;50.720;7.452;2022-12-20T13:47:00;99011.50;;;9.03;100.00
30554;BME280;17335;50.720;7.452;2022-12-20T13:49:33;99011.38;;;8.94;100.00
30554;BME280;17335;50.720;7.452;2022-12-20T13:54:42;99011.09;;;8.97;100.00
30554;BME280;17335;50.720;7.452;2022-12-20T13:57:28;99009.38;;;8.96;100.00
30554;BME280;17335;50.720;7.452;2022-12-20T13:59:59;99000.66;;;8.94;100.00
30554;BME280;17335;50.720;7.452;2022-12-20T14:02:35;99008.28;;;8.89;100.00
30554;BME280;17335;50.720;7.452;2022-12-20T14:05:12;99014.88;;;8.85;100.00
30554;BME280;17335;50.720;7.452;2022-12-20T14:07:42;99011.94;;;8.88;100.00
30554;BME280;17335;50.720;7.452;2022-12-20T14:10:17;99012.06;;;8.96;100.00
30554;BME280;17335;50.720;7.452;2022-12-20T14:12:44;99007.13;;;9.01;100.00
30554;BME280;17335;50.720;7.452;2022-12-20T14:15:32;99009.81;;;9.01;100.00
30554;BME280;17335;50.720;7.452;2022-12-20T14:18:26;99007.81;;;9.04;100.00
30554;BME280;17335;50.720;7.452;2022-12-20T14:23:37;98993.47;;;8.95;100.00
30554;BME280;17335;50.720;7.452;2022-12-20T14:26:10;99002.06;;;8.98;100.00
30554;BME280;17335;50.720;7.452;2022-12-20T14:28:42;98985.97;;;8.98;100.00
30554;BME280;17335;50.720;7.452;2022-12-20T14:31:31;98979.53;;;8.91;100.00
30554;BME280;17335;50.720;7.452;2022-12-20T14:36:46;98977.41;;;8.85;100.00
30554;BME280;17335;50.720;7.452;2022-12-20T14:39:21;98982.34;;;8.99;100.00
30554;BME280;17335;50.720;7.452;2022-12-20T14:41:54;98984.00;;;9.10;100.00
30554;BME280;17335;50.720;7.452;2022-12-20T14:44:22;98959.75;;;9.12;100.00
30554;BME280;17335;50.720;7.452;2022-12-20T14:49:36;98977.53;;;9.13;100.00
30554;BME280;17335;50.720;7.452;2022-12-20T14:52:15;98978.91;;;9.27;100.00
30554;BME280;17335;50.720;7.452;2022-12-20T14:57:38;98980.00;;;9.24;100.00
30554;BME280;17335;50.720;7.452;2022-12-20T15:00:18;98970.72;;;9.18;100.00
30554;BME280;17335;50.720;7.452;2022-12-20T15:11:33;98950.97;;;9.29;100.00
30554;BME280;17335;50.720;7.452;2022-12-20T15:14:29;98950.13;;;9.29;100.00
30554;BME280;17335;50.720;7.452;2022-12-20T15:17:13;98950.44;;;9.16;100.00
30554;BME280;17335;50.720;7.452;2022-12-20T15:22:58;98954.41;;;9.12;100.00
30554;BME280;17335;50.720;7.452;2022-12-20T15:25:33;98950.75;;;9.13;100.00
30554;BME280;17335;50.720;7.452;2022-12-20T15:28:25;98956.38;;;9.10;100.00
30554;BME280;17335;50.720;7.452;2022-12-20T15:31:07;98954.00;;;9.07;100.00
30554;BME280;17335;50.720;7.452;2022-12-20T15:33:43;98953.84;;;9.08;100.00
30554;BME280;17335;50.720;7.452;2022-12-20T15:36:29;98948.22;;;9.11;100.00
30554;BME280;17335;50.720;7.452;2022-12-20T15:39:11;98951.59;;;9.13;100.00